Ceresco, Michigan
Current Conditions -  °F | °C
As of 4:14 AM on Friday 24 Oct 2014 (Local Time) from KRMY Reporting Station
Haze Haze  
Wind Chill: 29°   Ceiling: 8500
Heat Index: 34°   Visibility: 5mi
Dew Point: 33°   Wind: 6mph
Humidity: 97%   Direction: 190°S
Pressure: 30.06"   Gusts: NA
Location:  42.27°N, 85.06°W
Report Text: KRMY 240814Z AUTO 19005KT 5SM BR BKN085 01/01 A3006 RMK AO2 T00120008
Loading
Personal Weather Stations






























Interactive Weather Map
Tropical Storm Tracking
New forecast layout! Learn more

10-Day Weather Forecast

Advertisements
Track Severe Weather on mobile